Time;durP1;ratioP1;P1;durP2;ratioP2;P2;SDS_P1;SDS_P2;PMS_P1;PMS_P2;Temp;Humidity;BMP_temperature;BMP_pressure;BME280_temperature;BME280_humidity;BME280_pressure;Samples;Min_cycle;Max_cycle;Signal;HPM_P1;HPM_P2
2021/11/24 00:01:28;;;;;;;35.63;14.07;;;;;;;-145.69;100.00;74049.78;5116064;28;20247;-75
2021/11/24 00:03:54;;;;;;;38.47;14.40;;;;;;;-145.69;100.00;74033.84;5116041;28;20229;-75
2021/11/24 00:06:21;;;;;;;43.53;16.67;;;;;;;-145.69;100.00;73988.06;5115783;28;20274;-76
2021/11/24 00:08:48;;;;;;;43.43;15.90;;;;;;;-145.69;100.00;73950.22;5115511;28;20189;-75
2021/11/24 00:11:16;;;;;;;44.60;15.17;;;;;;;-145.69;100.00;73972.13;5115641;28;20293;-75
2021/11/24 00:13:43;;;;;;;37.17;14.67;;;;;;;-145.69;100.00;73992.03;5115420;28;20674;-75
2021/11/24 00:16:09;;;;;;;39.27;13.83;;;;;;;-145.69;100.00;73996.03;5115743;28;20208;-76
2021/11/24 00:18:36;;;;;;;39.40;14.63;;;;;;;-145.69;100.00;73992.03;5115420;28;20240;-75
2021/11/24 00:21:02;;;;;;;39.53;13.87;;;;;;;-145.69;100.00;73990.06;5115236;28;20655;-75
2021/11/24 00:23:29;;;;;;;38.20;14.07;;;;;;;-145.69;100.00;74005.97;5115388;28;20561;-75
2021/11/24 00:25:55;;;;;;;36.40;14.23;;;;;;;-145.69;100.00;74011.97;5115272;28;20655;-76
2021/11/24 00:28:23;;;;;;;41.63;14.43;;;;;;;-145.69;100.00;73988.06;5115130;28;20201;-76
2021/11/24 00:30:50;;;;;;;40.23;15.40;;;;;;;-145.69;100.00;73986.06;5115433;28;20208;-76
2021/11/24 00:33:16;;;;;;;33.77;13.67;;;;;;;-145.69;100.00;73996.03;5115262;28;20223;-76
2021/11/24 00:35:43;;;;;;;35.77;13.90;;;;;;;-145.69;100.00;74002.00;5115236;28;20246;-75
2021/11/24 00:38:09;;;;;;;38.23;14.67;;;;;;;-145.69;100.00;73990.06;5115036;28;20204;-76
2021/11/24 00:40:37;;;;;;;38.97;14.37;;;;;;;-145.69;100.00;73990.06;5115024;28;20243;-76
2021/11/24 00:43:04;;;;;;;44.53;15.43;;;;;;;-145.69;100.00;73948.25;5114757;28;20274;-76
2021/11/24 00:45:32;;;;;;;40.17;15.03;;;;;;;-145.69;100.00;73966.16;5115044;28;20281;-76
2021/11/24 00:47:59;;;;;;;35.33;13.00;;;;;;;-145.69;100.00;73968.16;5115005;28;20204;-76
2021/11/24 00:50:25;;;;;;;42.77;15.13;;;;;;;-145.69;100.00;73982.09;5114815;28;20198;-76
2021/11/24 00:52:52;;;;;;;43.20;15.13;;;;;;;-145.69;100.00;73966.16;5114720;28;20212;-76
2021/11/24 00:55:19;;;;;;;39.63;14.30;;;;;;;-145.69;100.00;73976.13;5114775;28;20274;-76
2021/11/24 00:57:45;;;;;;;38.00;14.20;;;;;;;-145.69;100.00;73982.09;5114913;28;20205;-76
2021/11/24 01:00:14;;;;;;;41.33;15.23;;;;;;;-145.69;100.00;73970.16;5114573;28;20590;-76
2021/11/24 01:02:42;;;;;;;41.73;15.43;;;;;;;-145.69;100.00;73978.09;5114703;28;20316;-76
2021/11/24 01:05:10;;;;;;;40.27;15.03;;;;;;;-145.69;100.00;73984.09;5114615;28;20198;-76
2021/11/24 01:07:39;;;;;;;30.83;12.73;;;;;;;-145.69;100.00;73986.06;5114628;28;20224;-76
2021/11/24 01:10:07;;;;;;;34.77;14.27;;;;;;;-145.69;100.00;73938.28;5114717;28;20204;-75
2021/11/24 01:12:35;;;;;;;40.83;14.77;;;;;;;-145.69;100.00;73934.31;5114376;28;20201;-76
2021/11/24 01:15:02;;;;;;;44.80;15.57;;;;;;;-145.69;100.00;73930.31;5114499;28;20198;-76
2021/11/24 01:17:28;;;;;;;39.77;15.20;;;;;;;-145.69;100.00;73942.25;5114411;28;20661;-76
2021/11/24 01:19:56;;;;;;;47.33;15.97;;;;;;;-145.69;100.00;73942.25;5114122;28;20228;-76
2021/11/24 01:22:23;;;;;;;45.43;16.30;;;;;;;-145.69;100.00;73938.28;5113977;28;20292;-76
2021/11/24 01:24:49;;;;;;;43.47;15.83;;;;;;;-145.69;100.00;73944.25;5130633;27;20201;-76
2021/11/24 01:27:16;;;;;;;44.37;16.67;;;;;;;-145.69;100.00;73966.16;5134899;27;20224;-76
2021/11/24 01:29:42;;;;;;;44.60;15.30;;;;;;;-145.69;100.00;73958.19;5132803;27;20564;-76
2021/11/24 01:32:09;;;;;;;41.30;15.60;;;;;;;-145.69;100.00;73980.09;5121743;27;20201;-76
2021/11/24 01:34:35;;;;;;;43.27;16.47;;;;;;;-145.69;100.00;73974.13;5134517;27;20682;-76
2021/11/24 01:37:03;;;;;;;38.97;14.73;;;;;;;-145.69;100.00;73984.09;5134279;27;20677;-75
2021/11/24 01:39:30;;;;;;;43.80;14.40;;;;;;;-145.69;100.00;73978.09;5134763;27;20604;-75
2021/11/24 01:41:56;;;;;;;40.63;15.17;;;;;;;-145.69;100.00;73966.16;5134684;27;20624;-76
2021/11/24 01:44:27;;;;;;;35.97;14.20;;;;;;;-145.69;100.00;73962.19;5134501;27;20281;-76
2021/11/24 01:46:56;;;;;;;38.63;15.43;;;;;;;-145.69;100.00;73966.16;5134449;27;20207;-76
2021/11/24 01:49:24;;;;;;;45.67;15.97;;;;;;;-145.69;100.00;73912.41;5133935;27;20196;-76
2021/11/24 01:51:52;;;;;;;43.00;16.50;;;;;;;-145.69;100.00;73904.44;5134365;27;20200;-76
2021/11/24 01:54:20;;;;;;;52.13;17.90;;;;;;;-145.69;100.00;73900.44;5134260;27;20207;-76
2021/11/24 01:56:47;;;;;;;49.00;18.27;;;;;;;-145.69;100.00;73878.56;5134221;27;20207;-76
2021/11/24 01:59:15;;;;;;;52.20;18.57;;;;;;;-145.69;100.00;73854.66;5134297;27;20651;-75
2021/11/24 02:01:43;;;;;;;49.70;18.23;;;;;;;-145.69;100.00;73862.63;5134157;27;20204;-76
2021/11/24 02:04:10;;;;;;;46.77;17.50;;;;;;;-145.69;100.00;73876.56;5133924;27;20695;-76
2021/11/24 02:06:36;;;;;;;43.60;15.97;;;;;;;-145.69;100.00;73886.50;5134266;27;20196;-76
2021/11/24 02:09:04;;;;;;;40.80;15.70;;;;;;;-145.69;100.00;73870.59;5134221;27;20214;-75
2021/11/24 02:11:37;;;;;;;43.03;15.73;;;;;;;-145.69;100.00;73878.56;5134047;27;20555;-76
2021/11/24 02:14:03;;;;;;;42.37;16.40;;;;;;;-145.69;100.00;73884.53;5134095;27;20201;-76
2021/11/24 02:16:30;;;;;;;41.03;16.87;;;;;;;-145.69;100.00;73876.56;5134009;27;20201;-76
2021/11/24 02:18:56;;;;;;;44.20;16.63;;;;;;;-145.69;100.00;73868.59;5133867;27;20224;-76
2021/11/24 02:21:24;;;;;;;45.10;17.13;;;;;;;-145.69;100.00;73860.63;5134156;28;20200;-76
2021/11/24 02:23:51;;;;;;;47.03;16.80;;;;;;;-145.69;100.00;73838.72;5133666;27;20814;-76
2021/11/24 02:26:18;;;;;;;46.53;17.23;;;;;;;-145.69;100.00;73822.81;5134075;28;20200;-76
2021/11/24 02:28:44;;;;;;;45.00;16.17;;;;;;;-145.69;100.00;73810.84;5133713;28;20196;-76
2021/11/24 02:31:23;;;;;;;40.87;15.37;;;;;;;-145.69;100.00;73818.81;5133804;27;20200;-77
2021/11/24 02:33:51;;;;;;;47.87;17.77;;;;;;;-145.69;100.00;73794.94;5134014;28;20253;-76
2021/11/24 02:36:17;;;;;;;52.90;17.60;;;;;;;-145.69;100.00;73792.94;5134052;27;20201;-76
2021/11/24 02:38:46;;;;;;;48.23;17.83;;;;;;;-145.69;100.00;73794.94;5133685;27;20658;-76
2021/11/24 02:41:13;;;;;;;43.57;16.33;;;;;;;-145.69;100.00;73798.91;5133891;27;20250;-76
2021/11/24 02:43:46;;;;;;;40.87;15.53;;;;;;;-145.69;100.00;73796.91;5133702;27;20225;-76
2021/11/24 02:46:12;;;;;;;38.73;16.00;;;;;;;-145.69;100.00;73808.88;5133579;28;20679;-75
2021/11/24 02:48:39;;;;;;;39.97;15.67;;;;;;;-145.69;100.00;73810.84;5133794;28;20197;-76
2021/11/24 02:51:06;;;;;;;39.63;15.50;;;;;;;-145.69;100.00;73818.81;5133775;27;20193;-76
2021/11/24 02:53:34;;;;;;;39.20;16.50;;;;;;;-145.69;100.00;73794.94;5133658;27;20205;-76
2021/11/24 02:56:03;;;;;;;41.23;15.40;;;;;;;-145.69;100.00;73806.88;5133636;28;20211;-76
2021/11/24 02:58:30;;;;;;;40.13;16.03;;;;;;;-145.69;100.00;73800.91;5133653;27;20227;-75
2021/11/24 03:00:58;;;;;;;40.67;16.63;;;;;;;-145.69;100.00;73802.88;5134580;27;20205;-76
2021/11/24 03:03:25;;;;;;;42.97;17.30;;;;;;;-145.69;100.00;73802.88;5137682;27;20223;-76
2021/11/24 03:05:51;;;;;;;40.10;15.90;;;;;;;-145.69;100.00;73798.91;5137579;27;20647;-76
2021/11/24 03:08:18;;;;;;;46.23;17.17;;;;;;;-145.69;100.00;73782.97;5137165;27;20193;-76
2021/11/24 03:10:45;;;;;;;45.47;16.57;;;;;;;-145.69;100.00;73782.97;5137348;27;20197;-76
2021/11/24 03:13:13;;;;;;;43.33;17.30;;;;;;;-145.69;100.00;73786.97;5137586;27;20273;-76
2021/11/24 03:15:40;;;;;;;41.73;16.77;;;;;;;-145.69;100.00;73786.97;5137558;27;20230;-76
2021/11/24 03:18:06;;;;;;;42.97;15.87;;;;;;;-145.69;100.00;73792.94;5137257;27;20253;-76
2021/11/24 03:20:33;;;;;;;40.60;16.13;;;;;;;-145.69;100.00;73786.97;5137415;27;20204;-76
2021/11/24 03:23:00;;;;;;;53.10;18.33;;;;;;;-145.69;100.00;73767.06;5137149;27;20199;-76
2021/11/24 03:25:27;;;;;;;46.30;16.77;;;;;;;-145.69;100.00;73759.09;5137169;27;20646;-76
2021/11/24 03:27:53;;;;;;;44.10;17.53;;;;;;;-145.69;100.00;73751.13;5137087;27;20211;-76
2021/11/24 03:30:24;;;;;;;46.27;17.20;;;;;;;-145.69;100.00;73737.19;5135428;27;20291;-76
2021/11/24 03:32:52;;;;;;;42.10;16.77;;;;;;;-145.69;100.00;73727.22;5116595;28;20212;-76
2021/11/24 03:35:20;;;;;;;44.87;17.03;;;;;;;-145.69;100.00;73715.28;5116545;27;20205;-76
2021/11/24 03:37:47;;;;;;;48.77;18.17;;;;;;;-145.69;100.00;73705.34;5116450;28;20193;-76
2021/11/24 03:40:15;;;;;;;50.87;18.97;;;;;;;-145.69;100.00;73693.38;5116583;28;20228;-76
2021/11/24 03:42:44;;;;;;;47.83;17.57;;;;;;;-145.69;100.00;73677.47;5116520;28;20230;-76
2021/11/24 03:45:11;;;;;;;43.53;17.00;;;;;;;-145.69;100.00;73675.47;5116196;28;20225;-76
2021/11/24 03:47:39;;;;;;;41.87;16.67;;;;;;;-145.69;100.00;73679.44;5116336;28;20206;-76
2021/11/24 03:50:07;;;;;;;40.13;16.40;;;;;;;-145.69;100.00;73687.41;5116321;28;20208;-76
2021/11/24 03:52:33;;;;;;;43.07;17.47;;;;;;;-145.69;100.00;73689.41;5116045;28;20201;-76
2021/11/24 03:55:00;;;;;;;45.17;18.63;;;;;;;-145.69;100.00;73665.50;5116484;28;20269;-76
2021/11/24 03:57:26;;;;;;;48.53;19.13;;;;;;;-145.69;100.00;73671.47;5116344;28;20204;-76
2021/11/24 03:59:53;;;;;;;42.60;16.50;;;;;;;-145.69;100.00;73657.53;5115978;28;20345;-76
2021/11/24 04:02:19;;;;;;;40.40;17.07;;;;;;;-145.69;100.00;73667.50;5116102;28;20198;-76
2021/11/24 04:04:47;;;;;;;42.97;17.10;;;;;;;-145.69;100.00;73679.44;5115676;28;20712;-77
2021/11/24 04:07:14;;;;;;;36.23;15.07;;;;;;;-145.69;100.00;73683.44;5115789;28;20220;-76
2021/11/24 04:09:40;;;;;;;42.13;16.73;;;;;;;-145.69;100.00;73675.47;5115848;28;20266;-76
2021/11/24 04:12:08;;;;;;;38.47;15.43;;;;;;;-145.69;100.00;73679.44;5115381;28;20224;-76
2021/11/24 04:14:34;;;;;;;35.53;15.33;;;;;;;-145.69;100.00;73697.38;5115691;28;20197;-76
2021/11/24 04:17:01;;;;;;;34.27;14.70;;;;;;;-145.69;100.00;73715.28;5115699;28;20201;-76
2021/11/24 04:19:29;;;;;;;38.67;15.87;;;;;;;-145.69;100.00;73695.38;5115370;28;20229;-76
2021/11/24 04:21:57;;;;;;;40.33;16.43;;;;;;;-145.69;100.00;73707.31;5115691;28;20567;-76
2021/11/24 04:24:25;;;;;;;36.67;15.73;;;;;;;-145.69;100.00;73713.28;5115622;28;20591;-76
2021/11/24 04:26:52;;;;;;;36.13;15.37;;;;;;;-145.69;100.00;73715.28;5115189;28;20623;-76
2021/11/24 04:29:18;;;;;;;36.00;15.70;;;;;;;-145.69;100.00;73719.25;5115511;28;20201;-76
2021/11/24 04:31:45;;;;;;;40.83;16.20;;;;;;;-145.69;100.00;73717.28;5115263;28;20205;-76
2021/11/24 04:34:12;;;;;;;46.83;16.90;;;;;;;-145.69;100.00;73703.34;5115165;28;20194;-76
2021/11/24 04:36:38;;;;;;;38.60;16.40;;;;;;;-145.69;100.00;73703.34;5115411;28;20618;-76
2021/11/24 04:39:06;;;;;;;46.87;18.23;;;;;;;-145.69;100.00;73667.50;5115409;28;20613;-76
2021/11/24 04:41:32;;;;;;;46.33;17.70;;;;;;;-145.69;100.00;73681.44;5115443;28;20205;-76
2021/11/24 04:44:02;;;;;;;38.80;16.17;;;;;;;-145.69;100.00;73723.25;5115108;28;20221;-76
2021/11/24 04:46:28;;;;;;;41.87;16.47;;;;;;;-145.69;100.00;73723.25;5115096;28;20250;-76
2021/11/24 04:48:56;;;;;;;42.17;17.50;;;;;;;-145.69;100.00;73725.25;5114905;28;20200;-76
2021/11/24 04:51:23;;;;;;;44.00;17.43;;;;;;;-145.69;100.00;73715.28;5115240;28;20198;-76
2021/11/24 04:53:49;;;;;;;45.20;17.10;;;;;;;-145.69;100.00;73707.31;5114977;28;20216;-75
2021/11/24 04:56:18;;;;;;;39.23;15.73;;;;;;;-145.69;100.00;73715.28;5114923;28;20194;-75
2021/11/24 04:58:51;;;;;;;38.90;16.40;;;;;;;-145.69;100.00;73727.22;5114655;28;20682;-76
2021/11/24 05:01:18;;;;;;;39.27;15.07;;;;;;;-145.69;100.00;73739.19;5114710;28;20197;-76
2021/11/24 05:03:44;;;;;;;34.00;15.03;;;;;;;-145.69;100.00;73751.13;5114744;28;20205;-76
2021/11/24 05:06:11;;;;;;;36.43;14.73;;;;;;;-145.69;100.00;73765.06;5114338;28;20202;-75
2021/11/24 05:08:39;;;;;;;40.73;16.27;;;;;;;-145.69;100.00;73775.00;5114661;28;20197;-76
2021/11/24 05:11:10;;;;;;;46.37;19.23;;;;;;;-145.69;100.00;73782.97;5114558;28;20564;-75
2021/11/24 05:13:39;;;;;;;40.87;17.43;;;;;;;-145.69;100.00;73777.00;5114271;28;20203;-76
2021/11/24 05:16:07;;;;;;;36.03;15.57;;;;;;;-145.69;100.00;73790.94;5114659;28;20235;-76
2021/11/24 05:18:36;;;;;;;36.33;15.10;;;;;;;-145.69;100.00;73786.97;5114318;28;20244;-76
2021/11/24 05:21:07;;;;;;;39.03;15.53;;;;;;;-145.69;100.00;73784.97;5114636;28;20307;-76
2021/11/24 05:23:40;;;;;;;36.33;15.83;;;;;;;-145.69;100.00;73794.94;5113477;28;20724;-76
2021/11/24 05:26:07;;;;;;;37.57;15.73;;;;;;;-145.69;100.00;73814.84;5114480;27;20223;-76
2021/11/24 05:28:34;;;;;;;40.83;16.00;;;;;;;-145.69;100.00;73806.88;5116164;27;20194;-76
2021/11/24 05:31:02;;;;;;;35.47;15.33;;;;;;;-145.69;100.00;73806.88;5113933;28;20660;-76
2021/11/24 05:33:29;;;;;;;36.03;14.70;;;;;;;-145.69;100.00;73812.84;5114087;28;20647;-76
2021/11/24 05:35:58;;;;;;;31.27;13.13;;;;;;;-145.69;100.00;73824.78;5113866;28;20205;-75
2021/11/24 05:38:24;;;;;;;34.10;13.57;;;;;;;-145.69;100.00;73846.69;5114070;28;20197;-75
2021/11/24 05:40:51;;;;;;;33.03;13.27;;;;;;;-145.69;100.00;73854.66;5113740;28;20197;-76
2021/11/24 05:43:20;;;;;;;41.60;15.73;;;;;;;-145.69;100.00;73862.63;5113743;28;20205;-76
2021/11/24 05:46:09;;;;;;;32.50;13.60;;;;;;;-145.69;100.00;73870.59;5113868;28;20271;-76
2021/11/24 05:48:37;;;;;;;39.30;15.10;;;;;;;-145.69;100.00;73886.50;5113824;28;20198;-76
2021/11/24 05:51:05;;;;;;;29.57;12.73;;;;;;;-145.69;100.00;73912.41;5113603;28;20730;-76
2021/11/24 05:53:32;;;;;;;33.77;13.67;;;;;;;-145.69;100.00;73932.31;5113882;28;20197;-75
2021/11/24 05:56:01;;;;;;;35.10;12.73;;;;;;;-145.69;100.00;73930.31;5113871;28;20208;-76
2021/11/24 05:58:28;;;;;;;29.37;12.20;;;;;;;-145.69;100.00;73938.28;5113752;28;20560;-75
2021/11/24 06:00:55;;;;;;;33.23;14.43;;;;;;;-145.69;100.00;73942.25;5113715;28;20197;-76
2021/11/24 06:03:21;;;;;;;34.13;14.50;;;;;;;-145.69;100.00;73950.22;5113540;28;20205;-76
2021/11/24 06:05:49;;;;;;;31.43;13.57;;;;;;;-145.69;100.00;73958.19;5113299;28;20557;-76
2021/11/24 06:08:16;;;;;;;34.40;12.83;;;;;;;-145.69;100.00;73970.16;5113632;28;20291;-76
2021/11/24 06:10:43;;;;;;;35.53;14.13;;;;;;;-145.69;100.00;73972.13;5113373;28;20204;-75
2021/11/24 06:13:10;;;;;;;30.97;13.03;;;;;;;-145.69;100.00;73982.09;5113555;28;20205;-76
2021/11/24 06:15:36;;;;;;;35.13;13.50;;;;;;;-145.69;100.00;73986.06;5113416;28;20216;-75
2021/11/24 06:18:03;;;;;;;33.80;13.53;;;;;;;-145.69;100.00;73974.13;5113316;28;20229;-76
2021/11/24 06:20:29;;;;;;;31.97;12.43;;;;;;;-145.69;100.00;73984.09;5113408;28;20208;-76
2021/11/24 06:22:57;;;;;;;32.27;13.07;;;;;;;-145.69;100.00;73984.09;5113384;28;20391;-76
2021/11/24 06:25:24;;;;;;;32.40;13.77;;;;;;;-145.69;100.00;73960.19;5113353;28;20238;-76
2021/11/24 06:27:50;;;;;;;58.53;15.17;;;;;;;-145.69;100.00;73940.28;5113178;28;20201;-76
2021/11/24 06:30:18;;;;;;;45.50;15.93;;;;;;;-145.69;100.00;73932.31;5113183;28;20292;-75
2021/11/24 06:32:45;;;;;;;37.93;15.23;;;;;;;-145.69;100.00;73942.25;5113177;28;20205;-76
2021/11/24 06:35:14;;;;;;;42.00;16.10;;;;;;;-145.69;100.00;73950.22;5114246;28;20194;-76
2021/11/24 06:37:41;;;;;;;42.03;15.40;;;;;;;-145.69;100.00;73942.25;5117239;28;20193;-76
2021/11/24 06:40:13;;;;;;;35.83;13.73;;;;;;;-145.69;100.00;73946.25;5117288;28;20563;-75
2021/11/24 06:42:40;;;;;;;37.67;14.20;;;;;;;-145.69;100.00;73942.25;5117009;28;20674;-76
2021/11/24 06:45:07;;;;;;;44.57;15.23;;;;;;;-145.69;100.00;73930.31;5117167;28;20217;-75
2021/11/24 06:47:35;;;;;;;63.60;14.63;;;;;;;-145.69;100.00;73938.28;5117421;28;20322;-75
2021/11/24 06:50:04;;;;;;;31.50;12.97;;;;;;;-145.69;100.00;73936.28;5117371;28;20197;-76
2021/11/24 06:52:31;;;;;;;53.60;22.40;;;;;;;-145.69;100.00;73932.31;5115926;28;20431;-75
2021/11/24 06:54:57;;;;;;;57.90;16.63;;;;;;;-145.69;100.00;73918.38;5117054;28;20205;-76
2021/11/24 06:57:28;;;;;;;52.97;16.53;;;;;;;-145.69;100.00;73922.34;5117091;28;20201;-75
2021/11/24 06:59:55;;;;;;;49.37;15.67;;;;;;;-145.69;100.00;73922.34;5117014;28;20217;-76
2021/11/24 07:02:22;;;;;;;70.40;18.87;;;;;;;-145.69;100.00;73912.41;5117288;28;20292;-76
2021/11/24 07:04:48;;;;;;;50.87;16.63;;;;;;;-145.69;100.00;73906.44;5117139;28;20229;-75
2021/11/24 07:07:15;;;;;;;58.97;16.67;;;;;;;-145.69;100.00;73898.47;5117039;28;20207;-77
2021/11/24 07:09:42;;;;;;;41.83;15.97;;;;;;;-145.69;100.00;73892.50;5117040;28;20211;-75
2021/11/24 07:12:09;;;;;;;40.73;14.70;;;;;;;-145.69;100.00;73888.50;5116933;28;20201;-76
2021/11/24 07:14:37;;;;;;;36.43;14.50;;;;;;;-145.69;100.00;73870.59;5116569;28;20208;-76
2021/11/24 07:17:04;;;;;;;36.70;13.73;;;;;;;-145.69;100.00;73870.59;5116915;28;20198;-76
2021/11/24 07:19:31;;;;;;;37.90;13.87;;;;;;;-145.69;100.00;73854.66;5116567;28;20225;-76
2021/11/24 07:21:58;;;;;;;36.80;14.33;;;;;;;-145.69;100.00;73844.69;5116701;28;20292;-76
2021/11/24 07:24:24;;;;;;;38.57;13.67;;;;;;;-145.69;100.00;73850.69;5116706;27;20288;-76
2021/11/24 07:26:53;;;;;;;41.00;15.97;;;;;;;-145.69;100.00;73840.72;5118521;27;20210;-76
2021/11/24 07:29:22;;;;;;;40.50;14.77;;;;;;;-145.69;100.00;73840.72;5116792;28;20198;-75
2021/11/24 07:31:49;;;;;;;35.70;14.13;;;;;;;-145.69;100.00;73830.75;5116640;28;20216;-76
2021/11/24 07:34:16;;;;;;;37.50;13.43;;;;;;;-145.69;100.00;73836.75;5116588;28;20204;-76
2021/11/24 07:36:43;;;;;;;41.67;15.93;;;;;;;-145.69;100.00;73834.75;5116414;28;20209;-75
2021/11/24 07:39:11;;;;;;;41.93;15.67;;;;;;;-145.69;100.00;73838.72;5116266;28;20201;-76
2021/11/24 07:41:38;;;;;;;42.23;17.60;;;;;;;-145.69;100.00;73858.63;5116048;28;20245;-76
2021/11/24 07:44:05;;;;;;;48.47;18.60;;;;;;;-145.69;100.00;73858.63;5116334;28;20201;-76
2021/11/24 07:46:32;;;;;;;44.20;17.67;;;;;;;-145.69;100.00;73866.59;5115605;28;20221;-76
2021/11/24 07:49:00;;;;;;;35.80;15.83;;;;;;;-145.69;100.00;73858.63;5116157;28;20208;-75
2021/11/24 07:51:27;;;;;;;44.50;15.63;;;;;;;-145.69;100.00;73850.69;5116194;28;20564;-75
2021/11/24 07:53:54;;;;;;;38.27;15.10;;;;;;;-145.69;100.00;73846.69;5115924;28;20202;-76
2021/11/24 07:56:21;;;;;;;49.03;16.50;;;;;;;-145.69;100.00;73834.75;5115916;28;20198;-76
2021/11/24 07:58:47;;;;;;;90.53;17.87;;;;;;;-145.69;100.00;73830.75;5116019;28;20205;-76
2021/11/24 08:01:14;;;;;;;51.87;16.33;;;;;;;-145.69;100.00;73820.81;5116008;28;20198;-76
2021/11/24 08:03:42;;;;;;;74.67;17.43;;;;;;;-145.69;100.00;73798.91;5115976;28;20585;-76
2021/11/24 08:06:10;;;;;;;41.73;15.90;;;;;;;-145.69;100.00;73812.84;5115734;28;20221;-75
2021/11/24 08:08:36;;;;;;;55.47;17.53;;;;;;;-145.69;100.00;73806.88;5115541;28;20201;-76
2021/11/24 08:11:03;;;;;;;44.50;15.17;;;;;;;-145.69;100.00;73810.84;5116040;28;20258;-75
2021/11/24 08:13:30;;;;;;;39.17;15.53;;;;;;;-145.69;100.00;73810.84;5115598;28;20686;-75
2021/11/24 08:16:00;;;;;;;35.70;14.70;;;;;;;-145.69;100.00;73816.81;5115524;28;20205;-74
2021/11/24 08:18:27;;;;;;;63.00;22.20;;;;;;;-145.69;100.00;73810.84;5115473;28;20226;-76
2021/11/24 08:20:53;;;;;;;76.40;26.77;;;;;;;-145.69;100.00;73810.84;5115385;28;20609;-76
2021/11/24 08:23:24;;;;;;;63.57;22.43;;;;;;;-145.69;100.00;73816.81;5115373;28;20197;-76
2021/11/24 08:25:52;;;;;;;65.00;23.17;;;;;;;-145.69;100.00;73818.81;5115263;28;20263;-76
2021/11/24 08:28:22;;;;;;;47.23;19.10;;;;;;;-145.69;100.00;73806.88;5115420;28;20647;-76
2021/11/24 08:30:48;;;;;;;45.57;16.73;;;;;;;-145.69;100.00;73798.91;5115396;28;20571;-75
2021/11/24 08:33:15;;;;;;;56.33;21.00;;;;;;;-145.69;100.00;73810.84;5115495;28;20590;-76
2021/11/24 08:35:42;;;;;;;65.00;24.93;;;;;;;-145.69;100.00;73802.88;5115040;28;20208;-75
2021/11/24 08:38:09;;;;;;;56.97;21.00;;;;;;;-145.69;100.00;73782.97;5115418;28;20567;-76
2021/11/24 08:40:36;;;;;;;55.17;19.30;;;;;;;-145.69;100.00;73771.03;5115377;28;20201;-76
2021/11/24 08:43:03;;;;;;;51.63;19.63;;;;;;;-145.69;100.00;73747.13;5115245;28;20202;-76
2021/11/24 08:45:30;;;;;;;53.70;19.03;;;;;;;-145.69;100.00;73719.25;5114959;28;20229;-76
2021/11/24 08:47:56;;;;;;;62.80;20.77;;;;;;;-145.69;100.00;73683.44;5114984;28;20194;-76
2021/11/24 08:50:23;;;;;;;59.43;21.87;;;;;;;-145.69;100.00;73663.53;5114813;28;20656;-76
2021/11/24 08:52:50;;;;;;;64.77;20.97;;;;;;;-145.69;100.00;73651.56;5114915;28;20224;-76
2021/11/24 08:55:17;;;;;;;56.97;21.80;;;;;;;-145.69;100.00;73645.59;5114862;28;20660;-76
2021/11/24 08:57:47;;;;;;;58.53;20.10;;;;;;;-145.69;100.00;73627.69;5114705;28;20671;-76
2021/11/24 09:00:16;;;;;;;63.93;22.43;;;;;;;-145.69;100.00;73645.59;5114111;28;20197;-76
2021/11/24 09:02:45;;;;;;;60.47;22.73;;;;;;;-145.69;100.00;73635.66;5114613;28;20246;-76
2021/11/24 09:05:14;;;;;;;55.77;20.03;;;;;;;-145.69;100.00;73621.72;5114575;28;20772;-76
2021/11/24 09:07:40;;;;;;;51.17;20.70;;;;;;;-145.69;100.00;73635.66;5114779;28;20205;-76
2021/11/24 09:10:08;;;;;;;59.40;22.10;;;;;;;-145.69;100.00;73611.75;5114644;28;20560;-76
2021/11/24 09:12:34;;;;;;;60.47;23.93;;;;;;;-145.69;100.00;73591.84;5114397;28;20250;-75
2021/11/24 09:15:03;;;;;;;63.63;22.70;;;;;;;-145.69;100.00;73581.88;5114447;28;20237;-75
2021/11/24 09:17:30;;;;;;;61.03;21.93;;;;;;;-145.69;100.00;73552.03;5114164;28;20201;-75
2021/11/24 09:19:56;;;;;;;76.32;30.23;;;;;;;-145.69;100.00;73516.19;5113766;28;20438;-74
2021/11/24 09:22:23;;;;;;;62.47;24.37;;;;;;;-145.69;100.00;73508.22;5116938;27;20188;-75
2021/11/24 09:24:53;;;;;;;57.37;22.60;;;;;;;-145.69;100.00;73506.22;5114409;28;20201;-75
2021/11/24 09:27:29;;;;;;;53.53;21.10;;;;;;;-145.69;100.00;73494.28;5114221;28;20204;-75
2021/11/24 09:29:56;;;;;;;50.87;21.53;;;;;;;-145.69;100.00;73472.38;5114147;28;20205;-75
2021/11/24 09:32:23;;;;;;;57.50;23.03;;;;;;;-145.69;100.00;73460.44;5114329;28;20202;-75
2021/11/24 09:34:50;;;;;;;61.80;24.97;;;;;;;-145.69;100.00;73412.66;5114210;28;20224;-75
2021/11/24 09:37:16;;;;;;;68.57;25.40;;;;;;;-145.69;100.00;73376.81;5114101;28;20200;-75
2021/11/24 09:39:43;;;;;;;66.03;24.63;;;;;;;-145.69;100.00;73380.81;5114023;28;20205;-75
2021/11/24 09:42:11;;;;;;;64.00;24.77;;;;;;;-145.69;100.00;73362.88;5114029;28;20213;-75
2021/11/24 09:44:38;;;;;;;65.93;26.00;;;;;;;-145.69;100.00;73348.97;5113743;28;20242;-75
2021/11/24 09:47:08;;;;;;;53.63;22.13;;;;;;;-145.69;100.00;73346.97;5113873;28;20229;-75
2021/11/24 09:49:39;;;;;;;45.93;20.10;;;;;;;-145.69;100.00;73333.03;5114100;28;20208;-75
2021/11/24 09:52:07;;;;;;;47.67;18.27;;;;;;;-145.69;100.00;73313.13;5113728;28;20556;-75
2021/11/24 09:54:34;;;;;;;43.87;18.03;;;;;;;-145.69;100.00;73303.16;5113763;28;20250;-74
2021/11/24 09:57:01;;;;;;;42.83;17.77;;;;;;;-145.69;100.00;73271.31;5113681;28;20558;-75
2021/11/24 09:59:28;;;;;;;43.63;17.23;;;;;;;-145.69;100.00;73269.31;5113831;28;20205;-76
2021/11/24 10:01:55;;;;;;;42.67;17.07;;;;;;;-145.69;100.00;73259.38;5113901;28;20259;-75
2021/11/24 10:04:22;;;;;;;39.77;16.57;;;;;;;-145.69;100.00;73247.41;5113798;28;20194;-76
2021/11/24 10:06:50;;;;;;;42.60;16.80;;;;;;;-145.69;100.00;73247.41;5113377;28;20568;-76
2021/11/24 10:09:16;;;;;;;46.00;17.30;;;;;;;-145.69;100.00;73283.25;5113549;28;20205;-76
2021/11/24 10:11:43;;;;;;;43.33;16.97;;;;;;;-145.69;100.00;73259.38;5113729;28;20247;-76
2021/11/24 10:14:09;;;;;;;50.53;19.50;;;;;;;-145.69;100.00;73249.41;5113692;28;20280;-74
2021/11/24 10:16:36;;;;;;;46.57;17.77;;;;;;;-145.69;100.00;73241.44;5113586;28;20201;-76
2021/11/24 10:19:05;;;;;;;42.80;17.33;;;;;;;-145.69;100.00;73223.53;5113396;28;20229;-75
2021/11/24 10:21:33;;;;;;;46.07;19.27;;;;;;;-145.69;100.00;73209.59;5113635;28;20205;-75
2021/11/24 10:24:05;;;;;;;40.93;17.00;;;;;;;-145.69;100.00;73209.59;5113246;28;20204;-75
2021/11/24 10:26:33;;;;;;;52.07;19.23;;;;;;;-145.69;100.00;73201.63;5113487;28;20236;-75
2021/11/24 10:29:03;;;;;;;39.77;16.17;;;;;;;-145.69;100.00;73211.59;5113501;28;20208;-75
2021/11/24 10:31:35;;;;;;;39.77;16.70;;;;;;;-145.69;100.00;73205.63;5113486;28;20254;-75
2021/11/24 10:34:11;;;;;;;41.23;17.40;;;;;;;-145.69;100.00;73217.56;5113402;28;20225;-75
2021/11/24 10:36:49;;;;;;;43.97;16.90;;;;;;;-145.69;100.00;73193.66;5113260;28;20279;-75
2021/11/24 10:39:18;;;;;;;42.50;16.57;;;;;;;-145.69;100.00;73199.66;5113225;28;20724;-75
2021/11/24 10:41:44;;;;;;;44.43;16.87;;;;;;;-145.69;100.00;73209.59;5113432;28;20246;-75
2021/11/24 10:44:11;;;;;;;40.47;16.83;;;;;;;-145.69;100.00;73201.63;5113229;28;20197;-75
2021/11/24 10:46:38;;;;;;;43.83;16.27;;;;;;;-145.69;100.00;73181.72;5113146;28;20225;-75
2021/11/24 10:49:07;;;;;;;51.10;18.63;;;;;;;-145.69;100.00;73191.69;5112840;28;20643;-76
2021/11/24 10:51:37;;;;;;;47.13;18.20;;;;;;;-145.69;100.00;73179.75;5113425;28;20197;-75
2021/11/24 10:54:10;;;;;;;47.07;19.17;;;;;;;-145.69;100.00;73169.78;5113148;28;20655;-75
2021/11/24 10:56:59;;;;;;;51.60;20.03;;;;;;;-145.69;100.00;73131.97;5113218;28;20205;-75